sensor_id;sensor_type;location;lat;lon;timestamp;P1;durP1;ratioP1;P2;durP2;ratioP2
24034;SDS011;12242;50.952;4.678;2022-08-14T00:02:24;4.43;;;2.53;;
24034;SDS011;12242;50.952;4.678;2022-08-14T00:04:56;4.53;;;2.55;;
24034;SDS011;12242;50.952;4.678;2022-08-14T00:07:24;4.47;;;2.60;;
24034;SDS011;12242;50.952;4.678;2022-08-14T00:09:54;3.83;;;2.50;;
24034;SDS011;12242;50.952;4.678;2022-08-14T00:12:46;4.53;;;2.53;;
24034;SDS011;12242;50.952;4.678;2022-08-14T00:15:29;5.80;;;2.55;;
24034;SDS011;12242;50.952;4.678;2022-08-14T00:18:12;5.10;;;2.80;;
24034;SDS011;12242;50.952;4.678;2022-08-14T00:21:01;4.75;;;2.53;;
24034;SDS011;12242;50.952;4.678;2022-08-14T00:23:29;3.63;;;2.20;;
24034;SDS011;12242;50.952;4.678;2022-08-14T00:25:59;3.28;;;2.25;;
24034;SDS011;12242;50.952;4.678;2022-08-14T00:28:34;4.90;;;2.70;;
24034;SDS011;12242;50.952;4.678;2022-08-14T00:31:03;4.38;;;2.72;;
24034;SDS011;12242;50.952;4.678;2022-08-14T00:33:35;4.40;;;2.45;;
24034;SDS011;12242;50.952;4.678;2022-08-14T00:36:21;4.22;;;2.42;;
24034;SDS011;12242;50.952;4.678;2022-08-14T00:39:10;4.68;;;2.60;;
24034;SDS011;12242;50.952;4.678;2022-08-14T00:41:39;4.43;;;2.60;;
24034;SDS011;12242;50.952;4.678;2022-08-14T00:44:08;3.42;;;2.33;;
24034;SDS011;12242;50.952;4.678;2022-08-14T00:46:36;5.85;;;2.42;;
24034;SDS011;12242;50.952;4.678;2022-08-14T00:49:04;3.75;;;2.40;;
24034;SDS011;12242;50.952;4.678;2022-08-14T00:51:40;5.63;;;2.90;;
24034;SDS011;12242;50.952;4.678;2022-08-14T00:54:10;6.32;;;2.97;;
24034;SDS011;12242;50.952;4.678;2022-08-14T00:56:48;4.20;;;2.47;;
24034;SDS011;12242;50.952;4.678;2022-08-14T00:59:25;5.15;;;2.92;;
24034;SDS011;12242;50.952;4.678;2022-08-14T01:01:57;5.38;;;2.85;;
24034;SDS011;12242;50.952;4.678;2022-08-14T01:04:30;5.07;;;2.78;;
24034;SDS011;12242;50.952;4.678;2022-08-14T01:07:21;3.97;;;2.35;;
24034;SDS011;12242;50.952;4.678;2022-08-14T01:09:55;5.70;;;3.10;;
24034;SDS011;12242;50.952;4.678;2022-08-14T01:12:25;7.55;;;2.58;;
24034;SDS011;12242;50.952;4.678;2022-08-14T01:14:56;4.63;;;2.70;;
24034;SDS011;12242;50.952;4.678;2022-08-14T01:17:27;5.60;;;2.88;;
24034;SDS011;12242;50.952;4.678;2022-08-14T01:20:18;4.63;;;2.70;;
24034;SDS011;12242;50.952;4.678;2022-08-14T01:23:12;5.47;;;2.78;;
24034;SDS011;12242;50.952;4.678;2022-08-14T01:25:45;4.63;;;2.63;;
24034;SDS011;12242;50.952;4.678;2022-08-14T01:28:14;6.45;;;2.78;;
24034;SDS011;12242;50.952;4.678;2022-08-14T01:31:13;4.00;;;2.25;;
24034;SDS011;12242;50.952;4.678;2022-08-14T01:33:43;4.47;;;2.80;;
24034;SDS011;12242;50.952;4.678;2022-08-14T01:36:34;5.32;;;2.83;;
24034;SDS011;12242;50.952;4.678;2022-08-14T01:39:15;4.68;;;2.75;;
24034;SDS011;12242;50.952;4.678;2022-08-14T01:41:46;4.57;;;2.90;;
24034;SDS011;12242;50.952;4.678;2022-08-14T01:44:21;4.75;;;2.90;;
24034;SDS011;12242;50.952;4.678;2022-08-14T01:47:01;5.88;;;3.00;;
24034;SDS011;12242;50.952;4.678;2022-08-14T01:49:49;4.93;;;2.92;;
24034;SDS011;12242;50.952;4.678;2022-08-14T01:52:30;4.50;;;2.67;;
24034;SDS011;12242;50.952;4.678;2022-08-14T01:55:22;6.82;;;3.20;;
24034;SDS011;12242;50.952;4.678;2022-08-14T01:57:55;6.05;;;3.42;;
24034;SDS011;12242;50.952;4.678;2022-08-14T02:00:44;5.63;;;2.88;;
24034;SDS011;12242;50.952;4.678;2022-08-14T02:03:14;4.70;;;3.20;;
24034;SDS011;12242;50.952;4.678;2022-08-14T02:05:42;6.65;;;3.03;;
24034;SDS011;12242;50.952;4.678;2022-08-14T02:08:10;5.30;;;3.42;;
24034;SDS011;12242;50.952;4.678;2022-08-14T02:10:43;5.90;;;3.40;;
24034;SDS011;12242;50.952;4.678;2022-08-14T02:13:14;5.28;;;2.95;;
24034;SDS011;12242;50.952;4.678;2022-08-14T02:15:43;5.97;;;3.13;;
24034;SDS011;12242;50.952;4.678;2022-08-14T02:18:14;5.40;;;3.30;;
24034;SDS011;12242;50.952;4.678;2022-08-14T02:20:44;5.07;;;2.90;;
24034;SDS011;12242;50.952;4.678;2022-08-14T02:23:13;4.82;;;3.08;;
24034;SDS011;12242;50.952;4.678;2022-08-14T02:25:40;4.88;;;3.05;;
24034;SDS011;12242;50.952;4.678;2022-08-14T02:28:20;5.65;;;3.22;;
24034;SDS011;12242;50.952;4.678;2022-08-14T02:31:13;5.53;;;3.35;;
24034;SDS011;12242;50.952;4.678;2022-08-14T02:33:49;7.88;;;3.30;;
24034;SDS011;12242;50.952;4.678;2022-08-14T02:36:22;7.35;;;3.47;;
24034;SDS011;12242;50.952;4.678;2022-08-14T02:39:12;4.80;;;3.17;;
24034;SDS011;12242;50.952;4.678;2022-08-14T02:41:46;6.40;;;3.13;;
24034;SDS011;12242;50.952;4.678;2022-08-14T02:44:24;7.45;;;3.45;;
24034;SDS011;12242;50.952;4.678;2022-08-14T02:46:55;5.57;;;3.30;;
24034;SDS011;12242;50.952;4.678;2022-08-14T02:49:27;8.43;;;3.50;;
24034;SDS011;12242;50.952;4.678;2022-08-14T02:51:59;7.53;;;3.63;;
24034;SDS011;12242;50.952;4.678;2022-08-14T02:54:52;6.15;;;3.58;;
24034;SDS011;12242;50.952;4.678;2022-08-14T02:57:23;4.93;;;3.42;;
24034;SDS011;12242;50.952;4.678;2022-08-14T03:00:07;5.65;;;3.75;;
24034;SDS011;12242;50.952;4.678;2022-08-14T03:02:36;7.15;;;3.33;;
24034;SDS011;12242;50.952;4.678;2022-08-14T03:05:23;4.95;;;3.15;;
24034;SDS011;12242;50.952;4.678;2022-08-14T03:07:51;5.88;;;3.53;;
24034;SDS011;12242;50.952;4.678;2022-08-14T03:10:21;6.18;;;3.53;;
24034;SDS011;12242;50.952;4.678;2022-08-14T03:12:52;7.50;;;3.42;;
24034;SDS011;12242;50.952;4.678;2022-08-14T03:15:22;5.47;;;3.53;;
24034;SDS011;12242;50.952;4.678;2022-08-14T03:17:51;6.07;;;3.72;;
24034;SDS011;12242;50.952;4.678;2022-08-14T03:20:27;6.18;;;3.55;;
24034;SDS011;12242;50.952;4.678;2022-08-14T03:22:57;5.53;;;3.22;;
24034;SDS011;12242;50.952;4.678;2022-08-14T03:25:30;6.90;;;3.72;;
24034;SDS011;12242;50.952;4.678;2022-08-14T03:28:06;6.40;;;3.30;;
24034;SDS011;12242;50.952;4.678;2022-08-14T03:30:55;5.55;;;3.47;;
24034;SDS011;12242;50.952;4.678;2022-08-14T03:33:26;9.88;;;4.20;;
24034;SDS011;12242;50.952;4.678;2022-08-14T03:36:04;6.20;;;3.53;;
24034;SDS011;12242;50.952;4.678;2022-08-14T03:38:57;4.57;;;3.00;;
24034;SDS011;12242;50.952;4.678;2022-08-14T03:41:48;6.03;;;3.72;;
24034;SDS011;12242;50.952;4.678;2022-08-14T03:44:17;6.85;;;3.60;;
24034;SDS011;12242;50.952;4.678;2022-08-14T03:47:07;7.45;;;3.67;;
24034;SDS011;12242;50.952;4.678;2022-08-14T03:49:40;9.27;;;3.63;;
24034;SDS011;12242;50.952;4.678;2022-08-14T03:52:15;7.40;;;3.60;;
24034;SDS011;12242;50.952;4.678;2022-08-14T03:55:04;5.97;;;3.70;;
24034;SDS011;12242;50.952;4.678;2022-08-14T03:57:37;7.28;;;3.90;;
24034;SDS011;12242;50.952;4.678;2022-08-14T04:00:09;6.05;;;3.38;;
24034;SDS011;12242;50.952;4.678;2022-08-14T04:02:59;5.43;;;3.45;;
24034;SDS011;12242;50.952;4.678;2022-08-14T04:05:27;4.97;;;3.25;;
24034;SDS011;12242;50.952;4.678;2022-08-14T04:08:08;5.57;;;3.55;;
24034;SDS011;12242;50.952;4.678;2022-08-14T04:10:56;6.10;;;3.72;;
24034;SDS011;12242;50.952;4.678;2022-08-14T04:13:29;6.30;;;3.53;;
24034;SDS011;12242;50.952;4.678;2022-08-14T04:16:02;5.18;;;3.28;;
24034;SDS011;12242;50.952;4.678;2022-08-14T04:18:39;7.03;;;2.92;;
24034;SDS011;12242;50.952;4.678;2022-08-14T04:21:08;5.38;;;3.20;;
24034;SDS011;12242;50.952;4.678;2022-08-14T04:23:36;6.05;;;3.45;;
24034;SDS011;12242;50.952;4.678;2022-08-14T04:26:06;5.18;;;3.35;;
24034;SDS011;12242;50.952;4.678;2022-08-14T04:28:41;6.25;;;3.35;;
24034;SDS011;12242;50.952;4.678;2022-08-14T04:31:29;7.80;;;3.72;;
24034;SDS011;12242;50.952;4.678;2022-08-14T04:34:17;5.72;;;3.50;;
24034;SDS011;12242;50.952;4.678;2022-08-14T04:36:53;6.38;;;3.75;;
24034;SDS011;12242;50.952;4.678;2022-08-14T04:39:51;5.88;;;3.55;;
24034;SDS011;12242;50.952;4.678;2022-08-14T04:42:38;7.57;;;3.33;;
24034;SDS011;12242;50.952;4.678;2022-08-14T04:45:25;5.55;;;3.47;;
24034;SDS011;12242;50.952;4.678;2022-08-14T04:48:14;10.32;;;3.67;;
24034;SDS011;12242;50.952;4.678;2022-08-14T04:51:10;5.25;;;3.30;;
24034;SDS011;12242;50.952;4.678;2022-08-14T04:53:40;5.30;;;3.67;;
24034;SDS011;12242;50.952;4.678;2022-08-14T04:56:11;5.90;;;3.50;;
24034;SDS011;12242;50.952;4.678;2022-08-14T04:59:00;4.95;;;3.22;;
24034;SDS011;12242;50.952;4.678;2022-08-14T05:01:40;5.53;;;3.28;;
24034;SDS011;12242;50.952;4.678;2022-08-14T05:04:15;7.40;;;3.20;;
24034;SDS011;12242;50.952;4.678;2022-08-14T05:06:46;6.30;;;3.78;;
24034;SDS011;12242;50.952;4.678;2022-08-14T05:09:20;7.65;;;4.07;;
24034;SDS011;12242;50.952;4.678;2022-08-14T05:11:49;7.03;;;3.85;;
24034;SDS011;12242;50.952;4.678;2022-08-14T05:14:19;8.25;;;3.85;;
24034;SDS011;12242;50.952;4.678;2022-08-14T05:17:09;6.80;;;3.88;;
24034;SDS011;12242;50.952;4.678;2022-08-14T05:19:39;6.93;;;3.63;;
24034;SDS011;12242;50.952;4.678;2022-08-14T05:22:27;8.43;;;3.42;;
24034;SDS011;12242;50.952;4.678;2022-08-14T05:24:54;5.43;;;3.30;;
24034;SDS011;12242;50.952;4.678;2022-08-14T05:27:23;7.32;;;3.97;;
24034;SDS011;12242;50.952;4.678;2022-08-14T05:29:59;7.53;;;3.53;;
24034;SDS011;12242;50.952;4.678;2022-08-14T05:32:31;6.60;;;3.70;;
24034;SDS011;12242;50.952;4.678;2022-08-14T05:35:02;6.90;;;3.72;;
24034;SDS011;12242;50.952;4.678;2022-08-14T05:37:30;6.32;;;3.72;;
24034;SDS011;12242;50.952;4.678;2022-08-14T05:40:02;12.38;;;3.75;;
24034;SDS011;12242;50.952;4.678;2022-08-14T05:42:32;5.13;;;3.60;;
24034;SDS011;12242;50.952;4.678;2022-08-14T05:45:18;5.40;;;3.50;;
24034;SDS011;12242;50.952;4.678;2022-08-14T05:47:48;7.07;;;3.58;;
24034;SDS011;12242;50.952;4.678;2022-08-14T05:50:16;6.20;;;3.75;;
24034;SDS011;12242;50.952;4.678;2022-08-14T05:52:48;6.55;;;3.58;;
24034;SDS011;12242;50.952;4.678;2022-08-14T05:55:17;7.45;;;3.53;;
24034;SDS011;12242;50.952;4.678;2022-08-14T05:57:59;5.97;;;3.72;;
24034;SDS011;12242;50.952;4.678;2022-08-14T06:00:31;7.07;;;3.90;;
24034;SDS011;12242;50.952;4.678;2022-08-14T06:03:06;7.38;;;3.95;;
24034;SDS011;12242;50.952;4.678;2022-08-14T06:05:35;8.02;;;3.85;;
24034;SDS011;12242;50.952;4.678;2022-08-14T06:08:04;7.05;;;3.70;;
24034;SDS011;12242;50.952;4.678;2022-08-14T06:11:03;7.32;;;3.95;;
24034;SDS011;12242;50.952;4.678;2022-08-14T06:13:33;7.15;;;3.80;;
24034;SDS011;12242;50.952;4.678;2022-08-14T06:16:13;9.43;;;3.65;;
24034;SDS011;12242;50.952;4.678;2022-08-14T06:18:47;6.55;;;3.60;;
24034;SDS011;12242;50.952;4.678;2022-08-14T06:21:21;7.30;;;3.65;;
24034;SDS011;12242;50.952;4.678;2022-08-14T06:23:49;7.60;;;3.58;;
24034;SDS011;12242;50.952;4.678;2022-08-14T06:26:19;5.40;;;3.30;;
24034;SDS011;12242;50.952;4.678;2022-08-14T06:28:50;6.97;;;3.40;;
24034;SDS011;12242;50.952;4.678;2022-08-14T06:31:18;5.38;;;3.22;;
24034;SDS011;12242;50.952;4.678;2022-08-14T06:33:47;7.47;;;3.08;;
24034;SDS011;12242;50.952;4.678;2022-08-14T06:36:35;4.60;;;3.00;;
24034;SDS011;12242;50.952;4.678;2022-08-14T06:39:05;5.57;;;3.63;;
24034;SDS011;12242;50.952;4.678;2022-08-14T06:41:37;7.22;;;3.20;;
24034;SDS011;12242;50.952;4.678;2022-08-14T06:44:26;5.80;;;3.13;;
24034;SDS011;12242;50.952;4.678;2022-08-14T06:46:59;4.93;;;3.10;;
24034;SDS011;12242;50.952;4.678;2022-08-14T06:49:31;4.70;;;3.00;;
24034;SDS011;12242;50.952;4.678;2022-08-14T06:52:10;7.25;;;2.97;;
24034;SDS011;12242;50.952;4.678;2022-08-14T06:54:42;4.03;;;2.50;;
24034;SDS011;12242;50.952;4.678;2022-08-14T06:57:12;4.30;;;2.70;;
24034;SDS011;12242;50.952;4.678;2022-08-14T06:59:42;4.82;;;2.63;;
24034;SDS011;12242;50.952;4.678;2022-08-14T07:02:11;7.05;;;2.78;;
24034;SDS011;12242;50.952;4.678;2022-08-14T07:04:57;4.88;;;2.78;;
24034;SDS011;12242;50.952;4.678;2022-08-14T07:07:49;4.88;;;2.80;;
24034;SDS011;12242;50.952;4.678;2022-08-14T07:10:16;5.85;;;2.80;;
24034;SDS011;12242;50.952;4.678;2022-08-14T07:12:44;5.75;;;2.70;;
24034;SDS011;12242;50.952;4.678;2022-08-14T07:15:28;4.32;;;2.60;;
24034;SDS011;12242;50.952;4.678;2022-08-14T07:17:58;7.45;;;3.05;;
24034;SDS011;12242;50.952;4.678;2022-08-14T07:20:26;7.68;;;3.03;;
24034;SDS011;12242;50.952;4.678;2022-08-14T07:23:04;6.00;;;2.83;;
24034;SDS011;12242;50.952;4.678;2022-08-14T07:25:46;4.55;;;2.90;;
24034;SDS011;12242;50.952;4.678;2022-08-14T07:28:18;4.47;;;2.90;;
24034;SDS011;12242;50.952;4.678;2022-08-14T07:30:52;6.43;;;3.10;;
24034;SDS011;12242;50.952;4.678;2022-08-14T07:33:31;4.82;;;3.08;;
24034;SDS011;12242;50.952;4.678;2022-08-14T07:36:08;6.50;;;2.92;;
24034;SDS011;12242;50.952;4.678;2022-08-14T07:38:57;4.65;;;2.75;;
24034;SDS011;12242;50.952;4.678;2022-08-14T07:41:29;4.65;;;2.67;;
24034;SDS011;12242;50.952;4.678;2022-08-14T07:44:01;16.13;;;3.67;;
24034;SDS011;12242;50.952;4.678;2022-08-14T07:46:50;5.88;;;2.70;;
24034;SDS011;12242;50.952;4.678;2022-08-14T07:49:18;4.70;;;3.00;;
24034;SDS011;12242;50.952;4.678;2022-08-14T07:51:50;5.72;;;2.65;;
24034;SDS011;12242;50.952;4.678;2022-08-14T07:54:20;4.82;;;2.72;;
24034;SDS011;12242;50.952;4.678;2022-08-14T07:56:59;4.97;;;2.88;;
24034;SDS011;12242;50.952;4.678;2022-08-14T07:59:38;4.77;;;2.90;;
24034;SDS011;12242;50.952;4.678;2022-08-14T08:02:13;4.53;;;3.03;;
24034;SDS011;12242;50.952;4.678;2022-08-14T08:04:46;4.28;;;2.70;;
24034;SDS011;12242;50.952;4.678;2022-08-14T08:07:24;5.60;;;3.03;;
24034;SDS011;12242;50.952;4.678;2022-08-14T08:09:59;6.28;;;3.22;;
24034;SDS011;12242;50.952;4.678;2022-08-14T08:13:15;4.38;;;2.63;;
24034;SDS011;12242;50.952;4.678;2022-08-14T08:15:55;5.03;;;2.67;;
24034;SDS011;12242;50.952;4.678;2022-08-14T08:18:24;4.50;;;2.97;;
24034;SDS011;12242;50.952;4.678;2022-08-14T08:20:56;5.38;;;3.08;;
24034;SDS011;12242;50.952;4.678;2022-08-14T08:23:29;7.40;;;2.72;;
24034;SDS011;12242;50.952;4.678;2022-08-14T08:26:09;6.47;;;2.63;;
24034;SDS011;12242;50.952;4.678;2022-08-14T08:28:37;3.67;;;2.28;;
24034;SDS011;12242;50.952;4.678;2022-08-14T08:31:09;3.85;;;2.45;;
24034;SDS011;12242;50.952;4.678;2022-08-14T08:33:40;5.22;;;2.60;;
24034;SDS011;12242;50.952;4.678;2022-08-14T08:36:15;3.53;;;2.38;;
24034;SDS011;12242;50.952;4.678;2022-08-14T08:38:48;4.25;;;2.58;;
24034;SDS011;12242;50.952;4.678;2022-08-14T08:41:42;4.88;;;2.70;;
24034;SDS011;12242;50.952;4.678;2022-08-14T08:46:59;3.80;;;2.40;;
24034;SDS011;12242;50.952;4.678;2022-08-14T08:49:38;3.90;;;2.67;;
24034;SDS011;12242;50.952;4.678;2022-08-14T08:52:28;5.43;;;2.35;;
24034;SDS011;12242;50.952;4.678;2022-08-14T08:55:00;4.45;;;2.50;;
24034;SDS011;12242;50.952;4.678;2022-08-14T08:57:36;4.30;;;2.15;;
24034;SDS011;12242;50.952;4.678;2022-08-14T09:00:16;6.30;;;2.45;;
24034;SDS011;12242;50.952;4.678;2022-08-14T09:02:55;3.22;;;2.17;;
24034;SDS011;12242;50.952;4.678;2022-08-14T09:05:25;2.72;;;1.80;;
24034;SDS011;12242;50.952;4.678;2022-08-14T09:07:58;2.55;;;1.75;;
24034;SDS011;12242;50.952;4.678;2022-08-14T09:10:58;4.32;;;2.30;;
24034;SDS011;12242;50.952;4.678;2022-08-14T09:13:27;3.92;;;2.25;;
24034;SDS011;12242;50.952;4.678;2022-08-14T09:15:56;4.72;;;2.08;;
24034;SDS011;12242;50.952;4.678;2022-08-14T09:18:25;3.15;;;2.08;;
24034;SDS011;12242;50.952;4.678;2022-08-14T09:20:55;3.75;;;2.35;;
24034;SDS011;12242;50.952;4.678;2022-08-14T09:23:24;3.05;;;1.90;;
24034;SDS011;12242;50.952;4.678;2022-08-14T09:26:00;2.65;;;1.90;;
24034;SDS011;12242;50.952;4.678;2022-08-14T09:28:47;3.65;;;1.98;;
24034;SDS011;12242;50.952;4.678;2022-08-14T09:31:17;3.30;;;1.75;;
24034;SDS011;12242;50.952;4.678;2022-08-14T09:33:54;2.35;;;1.55;;
24034;SDS011;12242;50.952;4.678;2022-08-14T09:42:34;2.60;;;1.63;;
24034;SDS011;12242;50.952;4.678;2022-08-14T09:45:30;6.45;;;1.90;;
24034;SDS011;12242;50.952;4.678;2022-08-14T09:48:19;2.97;;;1.83;;
24034;SDS011;12242;50.952;4.678;2022-08-14T09:50:57;3.35;;;2.00;;
24034;SDS011;12242;50.952;4.678;2022-08-14T09:53:36;4.70;;;2.20;;
24034;SDS011;12242;50.952;4.678;2022-08-14T09:56:29;3.65;;;2.10;;
24034;SDS011;12242;50.952;4.678;2022-08-14T09:59:08;3.50;;;2.40;;
24034;SDS011;12242;50.952;4.678;2022-08-14T10:01:40;4.45;;;2.30;;
24034;SDS011;12242;50.952;4.678;2022-08-14T10:04:20;8.05;;;2.03;;
24034;SDS011;12242;50.952;4.678;2022-08-14T10:07:04;2.85;;;1.80;;
24034;SDS011;12242;50.952;4.678;2022-08-14T10:09:44;4.93;;;2.20;;
24034;SDS011;12242;50.952;4.678;2022-08-14T10:12:41;5.70;;;1.98;;
24034;SDS011;12242;50.952;4.678;2022-08-14T10:15:20;4.20;;;2.30;;
24034;SDS011;12242;50.952;4.678;2022-08-14T10:18:07;3.78;;;2.13;;
24034;SDS011;12242;50.952;4.678;2022-08-14T10:20:54;3.25;;;1.98;;
24034;SDS011;12242;50.952;4.678;2022-08-14T10:23:39;3.75;;;1.98;;
24034;SDS011;12242;50.952;4.678;2022-08-14T10:26:09;3.75;;;1.92;;
24034;SDS011;12242;50.952;4.678;2022-08-14T10:29:03;2.58;;;1.92;;
24034;SDS011;12242;50.952;4.678;2022-08-14T10:31:55;3.28;;;1.92;;
24034;SDS011;12242;50.952;4.678;2022-08-14T10:34:43;4.40;;;2.15;;
24034;SDS011;12242;50.952;4.678;2022-08-14T10:37:18;5.18;;;1.90;;
24034;SDS011;12242;50.952;4.678;2022-08-14T10:40:00;8.15;;;2.08;;
24034;SDS011;12242;50.952;4.678;2022-08-14T10:42:49;3.47;;;1.98;;
24034;SDS011;12242;50.952;4.678;2022-08-14T10:45:20;2.75;;;2.05;;
24034;SDS011;12242;50.952;4.678;2022-08-14T10:48:01;3.72;;;2.20;;
24034;SDS011;12242;50.952;4.678;2022-08-14T10:50:59;3.03;;;1.92;;
24034;SDS011;12242;50.952;4.678;2022-08-14T10:53:28;2.80;;;1.70;;
24034;SDS011;12242;50.952;4.678;2022-08-14T10:55:59;2.20;;;1.50;;
24034;SDS011;12242;50.952;4.678;2022-08-14T10:58:30;2.95;;;1.83;;
24034;SDS011;12242;50.952;4.678;2022-08-14T11:01:00;2.38;;;1.55;;
24034;SDS011;12242;50.952;4.678;2022-08-14T11:03:37;2.85;;;1.58;;
24034;SDS011;12242;50.952;4.678;2022-08-14T11:06:22;2.10;;;1.50;;
24034;SDS011;12242;50.952;4.678;2022-08-14T11:08:53;2.72;;;1.55;;
24034;SDS011;12242;50.952;4.678;2022-08-14T11:11:21;3.10;;;1.98;;
24034;SDS011;12242;50.952;4.678;2022-08-14T11:14:03;2.08;;;1.42;;
24034;SDS011;12242;50.952;4.678;2022-08-14T11:16:35;3.30;;;1.70;;
24034;SDS011;12242;50.952;4.678;2022-08-14T11:19:06;2.78;;;1.50;;
24034;SDS011;12242;50.952;4.678;2022-08-14T11:21:37;2.60;;;1.60;;
24034;SDS011;12242;50.952;4.678;2022-08-14T11:24:12;2.35;;;1.40;;
24034;SDS011;12242;50.952;4.678;2022-08-14T11:27:01;3.35;;;1.52;;
24034;SDS011;12242;50.952;4.678;2022-08-14T11:29:31;4.25;;;1.30;;
24034;SDS011;12242;50.952;4.678;2022-08-14T11:32:02;2.15;;;1.52;;
24034;SDS011;12242;50.952;4.678;2022-08-14T11:34:30;2.75;;;1.40;;
24034;SDS011;12242;50.952;4.678;2022-08-14T11:37:09;3.17;;;1.70;;
24034;SDS011;12242;50.952;4.678;2022-08-14T11:39:59;2.80;;;1.40;;
24034;SDS011;12242;50.952;4.678;2022-08-14T11:42:30;2.92;;;1.70;;
24034;SDS011;12242;50.952;4.678;2022-08-14T11:45:18;2.47;;;1.42;;
24034;SDS011;12242;50.952;4.678;2022-08-14T11:47:49;1.90;;;1.35;;
24034;SDS011;12242;50.952;4.678;2022-08-14T11:50:40;2.20;;;1.38;;
24034;SDS011;12242;50.952;4.678;2022-08-14T11:55:57;1.48;;;1.10;;
24034;SDS011;12242;50.952;4.678;2022-08-14T11:58:32;2.22;;;1.30;;
24034;SDS011;12242;50.952;4.678;2022-08-14T12:01:01;1.73;;;1.33;;
24034;SDS011;12242;50.952;4.678;2022-08-14T12:03:41;2.78;;;1.52;;
24034;SDS011;12242;50.952;4.678;2022-08-14T12:06:25;2.45;;;1.40;;
24034;SDS011;12242;50.952;4.678;2022-08-14T12:09:05;3.75;;;1.40;;
24034;SDS011;12242;50.952;4.678;2022-08-14T12:11:39;2.15;;;1.42;;
24034;SDS011;12242;50.952;4.678;2022-08-14T12:14:17;1.98;;;1.30;;
24034;SDS011;12242;50.952;4.678;2022-08-14T12:17:04;2.38;;;1.38;;
24034;SDS011;12242;50.952;4.678;2022-08-14T12:19:55;4.40;;;1.35;;
24034;SDS011;12242;50.952;4.678;2022-08-14T12:25:00;2.05;;;1.33;;
24034;SDS011;12242;50.952;4.678;2022-08-14T12:27:41;2.95;;;1.50;;
24034;SDS011;12242;50.952;4.678;2022-08-14T12:30:32;3.53;;;1.55;;
24034;SDS011;12242;50.952;4.678;2022-08-14T12:33:20;3.28;;;1.42;;
24034;SDS011;12242;50.952;4.678;2022-08-14T12:35:59;3.40;;;1.50;;
24034;SDS011;12242;50.952;4.678;2022-08-14T12:41:15;1.73;;;1.33;;
24034;SDS011;12242;50.952;4.678;2022-08-14T12:43:55;1.98;;;1.38;;
24034;SDS011;12242;50.952;4.678;2022-08-14T12:46:37;2.63;;;1.40;;
24034;SDS011;12242;50.952;4.678;2022-08-14T12:49:13;4.80;;;1.63;;
24034;SDS011;12242;50.952;4.678;2022-08-14T12:51:55;2.95;;;1.55;;
24034;SDS011;12242;50.952;4.678;2022-08-14T12:54:26;2.65;;;1.70;;
24034;SDS011;12242;50.952;4.678;2022-08-14T12:57:01;3.33;;;1.48;;
24034;SDS011;12242;50.952;4.678;2022-08-14T12:59:31;1.90;;;1.38;;
24034;SDS011;12242;50.952;4.678;2022-08-14T13:02:18;1.80;;;1.35;;
24034;SDS011;12242;50.952;4.678;2022-08-14T13:04:54;2.50;;;1.45;;
24034;SDS011;12242;50.952;4.678;2022-08-14T13:07:28;2.35;;;1.50;;
24034;SDS011;12242;50.952;4.678;2022-08-14T13:09:59;2.42;;;1.40;;
24034;SDS011;12242;50.952;4.678;2022-08-14T13:12:47;1.75;;;1.30;;
24034;SDS011;12242;50.952;4.678;2022-08-14T13:15:37;2.42;;;1.40;;
24034;SDS011;12242;50.952;4.678;2022-08-14T13:18:06;2.60;;;1.70;;
24034;SDS011;12242;50.952;4.678;2022-08-14T13:20:36;4.07;;;1.77;;
24034;SDS011;12242;50.952;4.678;2022-08-14T13:23:17;2.25;;;1.30;;
24034;SDS011;12242;50.952;4.678;2022-08-14T13:25:58;4.03;;;1.75;;
24034;SDS011;12242;50.952;4.678;2022-08-14T13:28:27;2.15;;;1.50;;
24034;SDS011;12242;50.952;4.678;2022-08-14T13:31:00;3.38;;;1.80;;
24034;SDS011;12242;50.952;4.678;2022-08-14T13:33:37;6.82;;;2.05;;
24034;SDS011;12242;50.952;4.678;2022-08-14T13:36:07;3.65;;;1.67;;
24034;SDS011;12242;50.952;4.678;2022-08-14T13:38:36;4.15;;;1.60;;
24034;SDS011;12242;50.952;4.678;2022-08-14T13:41:08;3.10;;;1.85;;
24034;SDS011;12242;50.952;4.678;2022-08-14T13:43:40;2.65;;;1.50;;
24034;SDS011;12242;50.952;4.678;2022-08-14T13:46:25;2.20;;;1.58;;
24034;SDS011;12242;50.952;4.678;2022-08-14T13:48:55;2.45;;;1.40;;
24034;SDS011;12242;50.952;4.678;2022-08-14T13:51:25;2.30;;;1.70;;
24034;SDS011;12242;50.952;4.678;2022-08-14T13:53:59;4.10;;;1.90;;
24034;SDS011;12242;50.952;4.678;2022-08-14T13:56:37;1.63;;;1.25;;
24034;SDS011;12242;50.952;4.678;2022-08-14T13:59:06;9.48;;;1.88;;
24034;SDS011;12242;50.952;4.678;2022-08-14T14:01:35;2.40;;;1.55;;
24034;SDS011;12242;50.952;4.678;2022-08-14T14:04:16;3.13;;;1.70;;
24034;SDS011;12242;50.952;4.678;2022-08-14T14:06:47;2.28;;;1.40;;
24034;SDS011;12242;50.952;4.678;2022-08-14T14:09:20;3.05;;;1.60;;
24034;SDS011;12242;50.952;4.678;2022-08-14T14:12:09;2.08;;;1.52;;
24034;SDS011;12242;50.952;4.678;2022-08-14T14:15:03;1.90;;;1.45;;
24034;SDS011;12242;50.952;4.678;2022-08-14T14:17:38;2.17;;;1.60;;
24034;SDS011;12242;50.952;4.678;2022-08-14T14:20:10;2.45;;;1.40;;
24034;SDS011;12242;50.952;4.678;2022-08-14T14:23:00;2.85;;;1.42;;
24034;SDS011;12242;50.952;4.678;2022-08-14T14:25:41;4.68;;;1.70;;
24034;SDS011;12242;50.952;4.678;2022-08-14T14:28:24;4.70;;;1.98;;
24034;SDS011;12242;50.952;4.678;2022-08-14T14:31:02;2.80;;;1.60;;
24034;SDS011;12242;50.952;4.678;2022-08-14T14:33:33;2.78;;;1.63;;
24034;SDS011;12242;50.952;4.678;2022-08-14T14:36:20;3.70;;;1.58;;
24034;SDS011;12242;50.952;4.678;2022-08-14T14:41:27;2.78;;;1.67;;
24034;SDS011;12242;50.952;4.678;2022-08-14T14:44:07;2.80;;;1.77;;
24034;SDS011;12242;50.952;4.678;2022-08-14T14:46:43;2.83;;;1.77;;
24034;SDS011;12242;50.952;4.678;2022-08-14T14:49:21;3.03;;;1.80;;
24034;SDS011;12242;50.952;4.678;2022-08-14T14:51:57;3.20;;;1.98;;
24034;SDS011;12242;50.952;4.678;2022-08-14T14:54:29;3.90;;;1.73;;
24034;SDS011;12242;50.952;4.678;2022-08-14T14:57:04;4.20;;;1.67;;
24034;SDS011;12242;50.952;4.678;2022-08-14T14:59:35;4.28;;;2.33;;
24034;SDS011;12242;50.952;4.678;2022-08-14T15:02:04;2.85;;;1.80;;
24034;SDS011;12242;50.952;4.678;2022-08-14T15:04:34;2.58;;;1.75;;
24034;SDS011;12242;50.952;4.678;2022-08-14T15:07:09;3.67;;;1.70;;
24034;SDS011;12242;50.952;4.678;2022-08-14T15:09:38;3.35;;;1.75;;
24034;SDS011;12242;50.952;4.678;2022-08-14T15:12:06;3.63;;;2.45;;
24034;SDS011;12242;50.952;4.678;2022-08-14T15:14:56;8.00;;;2.75;;
24034;SDS011;12242;50.952;4.678;2022-08-14T15:17:35;5.70;;;1.80;;
24034;SDS011;12242;50.952;4.678;2022-08-14T15:20:09;3.67;;;1.73;;
24034;SDS011;12242;50.952;4.678;2022-08-14T15:22:55;4.78;;;2.50;;
24034;SDS011;12242;50.952;4.678;2022-08-14T15:25:23;2.80;;;1.90;;
24034;SDS011;12242;50.952;4.678;2022-08-14T15:27:58;6.75;;;3.50;;
24034;SDS011;12242;50.952;4.678;2022-08-14T15:30:27;12.27;;;5.43;;
24034;SDS011;12242;50.952;4.678;2022-08-14T15:32:58;6.35;;;2.85;;
24034;SDS011;12242;50.952;4.678;2022-08-14T15:35:30;3.90;;;2.08;;
24034;SDS011;12242;50.952;4.678;2022-08-14T15:38:00;4.18;;;1.80;;
24034;SDS011;12242;50.952;4.678;2022-08-14T15:40:38;3.60;;;1.80;;
24034;SDS011;12242;50.952;4.678;2022-08-14T15:43:07;2.38;;;1.42;;
24034;SDS011;12242;50.952;4.678;2022-08-14T15:45:39;3.28;;;1.75;;
24034;SDS011;12242;50.952;4.678;2022-08-14T15:48:07;5.32;;;1.50;;
24034;SDS011;12242;50.952;4.678;2022-08-14T15:50:50;2.55;;;1.40;;
24034;SDS011;12242;50.952;4.678;2022-08-14T15:53:20;2.40;;;1.45;;
24034;SDS011;12242;50.952;4.678;2022-08-14T15:55:49;2.97;;;1.58;;
24034;SDS011;12242;50.952;4.678;2022-08-14T15:58:22;2.50;;;1.55;;
24034;SDS011;12242;50.952;4.678;2022-08-14T16:00:51;2.28;;;1.50;;
24034;SDS011;12242;50.952;4.678;2022-08-14T16:03:40;2.65;;;1.70;;
24034;SDS011;12242;50.952;4.678;2022-08-14T16:06:14;3.35;;;1.83;;